logo
App data

Gems of the Aztecs

A dangerous journey into the ruins of an ancient city await our hero. Help him find the treasure in Gems of the Aztecs!
Store | Hub | SteamDB
Developer: Wellore Publisher: 8Floor
Genre: Casual
Languages: English, French, German, Russian
Tags: Casual (109), Match 3 (103), Puzzle (100), Adventure (96), Singleplayer (93), Strategy (85), Arcade (84), Cartoony (81), Colorful (77), Cute (73), Minimalist (67), Family Friendly (63), Historical (58), Logic (55), Medieval (53), PvE (48), Short (45), Touch-Friendly (36), Indie (28), Free to Play (28)
Category: Single-player, Steam Trading Cards, Steam Cloud, Family Sharing
Release date: Apr 22, 2016
Price: $4.99
Old userscore: 73% Owners: 50,000 .. 100,000
Followers: 155
Peak concurrent players yesterday: 2
Playtime total: 04:17 (average) 04:11 (median)

Steam Spy is still in beta, so expect major bugs.

Owners data:

Access restricted.

This feature is only available to users with special access rights. Sorry.

If you want to proceed, you need to register or log in first and then back Steam Spy on Patreon. Look for Indie or Pro pledge.

Don't forget to use the same email as on Steam Spy!

If you've recently backed Steam Spy on Patreon, please note, that it might take around 15 minutes for your access rights to sync. In most cases you'll need to re-login on Steam Spy too.

Audience in 2 weeks:

Access restricted.

This feature is only available to users with special access rights. Sorry.

If you want to proceed, you need to register or log in first and then back Steam Spy on Patreon. Look for Indie or Pro pledge.

Don't forget to use the same email as on Steam Spy!

If you've recently backed Steam Spy on Patreon, please note, that it might take around 15 minutes for your access rights to sync. In most cases you'll need to re-login on Steam Spy too.

Peak daily concurrent players:

CCU data courtesy of SteamDB. Used with permission.

Hourly concurrent players:

Followers over time

Access restricted.

This feature is only available to users with special access rights. Sorry.

If you want to proceed, you need to register or log in first and then back Steam Spy on Patreon. Look for Indie or Pro pledge.

Don't forget to use the same email as on Steam Spy!

If you've recently backed Steam Spy on Patreon, please note, that it might take around 15 minutes for your access rights to sync. In most cases you'll need to re-login on Steam Spy too.

Views for top 50 videos on YouTube for this game:

Games similar to this one:

# Game Release date
Price
Score rank
(Userscore / Metascore)
Owners
Players
Playtime (Median)
1 Toilet Tycoon Mar 1, 2000 $4.99N/A (N/A)0 .. 20,0000%00:00 (00:00)
2 Alice's Patchwork Mar 3, 2016 $2.99N/A (N/A)50,000 .. 100,0000%00:00 (00:00)
3 PAC-MAN CHAMPIONSHIP EDITION 2 Sep 13, 2016 $12.99N/A (N/A)200,000 .. 500,0000.46%00:01 (00:00)
4 Stikbold! A Dodgeball Adventure Apr 1, 2016 $9.99N/A (N/A)20,000 .. 50,0000%00:00 (00:00)
5 Solitaire Christmas. Match 2 Cards Dec 24, 2015 $4.99N/A (N/A)50,000 .. 100,0000%00:00 (00:00)
6 Gnomes Garden Dec 18, 2015 $8.99N/A (N/A)50,000 .. 100,0000%00:00 (00:00)
7 Contract With The Devil Dec 11, 2015 $4.99N/A (N/A)50,000 .. 100,0000%00:00 (00:00)
8 Eagle Flight Dec 20, 2016 $19.99N/A (N/A/74%)20,000 .. 50,0000%00:00 (00:00)
9 Eventide: Slavic Fable Jan 28, 2016 $14.99N/A (N/A)50,000 .. 100,0000%00:00 (00:00)
10 Fill Up! Feb 17, 2016 $2.99N/A (N/A)20,000 .. 50,0000%00:00 (00:00)
11 Age of Invention Jan 28, 2013 $2.99N/A (N/A)20,000 .. 50,0000%00:00 (00:00)
12 Lost Legends: The Weeping Woman Collector's Edition Oct 21, 2015 $7.99N/A (N/A)0 .. 20,0000%00:00 (00:00)
13 Gnomes Garden 2 May 18, 2016 $4.99N/A (N/A)50,000 .. 100,0000%00:00 (00:00)
14 Luxury Hotel Emporium Aug 7, 2015 $3.99N/A (N/A)0 .. 20,0000%00:00 (00:00)
15 MiniDrivers Aug 20, 2015 N/AN/A (N/A)50,000 .. 100,0000%00:00 (00:00)
16 Mahjong Pretty Girls Battle : School Girls Edition Jun 22, 2015 $14.99N/A (N/A)20,000 .. 50,0000%00:00 (00:00)
17 Chronicle Keepers: The Dreaming Garden Jun 11, 2015 $4.99N/A (N/A)20,000 .. 50,0000%00:00 (00:00)
18 Splendor Sep 17, 2015 $9.99N/A (N/A)50,000 .. 100,0000%00:00 (00:00)
19 Trackmania Turbo Mar 24, 2016 $39.99N/A (N/A)100,000 .. 200,0000%00:00 (00:00)
20 Football Mogul 2014 Sep 4, 2013 $0.99N/A (N/A)0 .. 20,0000%00:00 (00:00)
21 Teddy Floppy Ear - The Race May 22, 2015 N/AN/A (N/A)200,000 .. 500,0000%00:00 (00:00)
22 Switch Galaxy Ultra Nov 20, 2015 $9.99N/A (N/A)20,000 .. 50,0000%00:00 (00:00)
23 Ghost Encounters: Deadwood - Collector's Edition Mar 13, 2015 $6.99N/A (N/A)20,000 .. 50,0000%00:00 (00:00)
24 Airport Firefighters - The Simulation May 13, 2015 $9.99N/A (N/A)50,000 .. 100,0000%00:00 (00:00)
25 Barnyard Mahjong 3 Jul 29, 2016 $1.99N/A (N/A)50,000 .. 100,0000%00:00 (00:00)
26 Block Blowout Oct 26, 2016 $0.99N/A (N/A)20,000 .. 50,0000%00:00 (00:00)
27 Bubble Blowout Oct 24, 2016 $0.99N/A (N/A)50,000 .. 100,0000%00:00 (00:00)
28 Dessert Storm Oct 23, 2016 $0.99N/A (N/A)50,000 .. 100,0000%00:00 (00:00)
29 Delicious! Pretty Girls Mahjong Solitaire Oct 14, 2016 $0.99N/A (N/A)50,000 .. 100,0000%00:00 (00:00)
30 Lost Grimoires: Stolen Kingdom Nov 10, 2016 $14.99N/A (N/A)20,000 .. 50,0000%00:00 (00:00)
31 Chess Knight 2 Sep 11, 2016 $2.99N/A (N/A)50,000 .. 100,0000%00:00 (00:00)
32 Princess Maker 2 Refine Sep 28, 2016 $19.99N/A (N/A)200,000 .. 500,0000%00:00 (00:00)
33 Super Jagua Sep 15, 2016 $0.99N/A (N/A)0 .. 20,0000%00:00 (00:00)
34 Fantastic 4 In A Row 2 Aug 15, 2016 $0.99N/A (N/A)20,000 .. 50,0000%00:00 (00:00)
35 Kitty Cat: Jigsaw Puzzles Jul 18, 2016 $0.99N/A (N/A)100,000 .. 200,0000%00:00 (00:00)
36 The Hidden Dragon Jul 26, 2016 $2.99N/A (N/A)20,000 .. 50,0000%00:00 (00:00)
37 Hidden Object Bundle 4 in 1 Jun 1, 2014 $7.99N/A (N/A)50,000 .. 100,0000%00:00 (00:00)
38 Ant Queen Jun 15, 2016 $5.99N/A (N/A)0 .. 20,0000%00:00 (00:00)
39 Ludo Supremo Jun 8, 2016 $1.99N/A (N/A)50,000 .. 100,0000%00:00 (00:00)
40 House of Snark 6-in-1 Bundle Jul 17, 2016 $11.99N/A (N/A)0 .. 20,0000%00:00 (00:00)
41 Escape The Past Sep 14, 2016 $4.99N/A (N/A)20,000 .. 50,0000%00:00 (00:00)
42 Space Codex May 9, 2016 $0.99N/A (N/A)200,000 .. 500,0000%00:00 (00:00)
43 Farming 6-in-1 bundle Jun 2, 2016 $5.99N/A (N/A)20,000 .. 50,0000%00:00 (00:00)
44 Grim Legends 3: The Dark City Jun 2, 2016 $14.99N/A (N/A)100,000 .. 200,0000%00:00 (00:00)
45 Nokori Mar 25, 2016 $0.99N/A (N/A)20,000 .. 50,0000%00:00 (00:00)
46 Flowers -Le volume sur printemps- Aug 17, 2016 $19.99N/A (N/A)100,000 .. 200,0000%00:00 (00:00)
47 Tropical Fish Shop 2 Feb 10, 2012 $3.99N/A (N/A)20,000 .. 50,0000%00:00 (00:00)
48 Rush for gold: California Mar 9, 2016 $3.99N/A (N/A)20,000 .. 50,0000%00:00 (00:00)
49 Tradewinds Classics Jul 1, 1989 N/AN/A (N/A)0 .. 20,0000%00:00 (00:00)
50 Transport Giant Jun 8, 2004 $1.99N/A (N/A)50,000 .. 100,0000%00:00 (00:00)
51 Ski Region Simulator - Gold Edition Jan 16, 2013 $8.99N/A (N/A)50,000 .. 100,0000%00:00 (00:00)
52 Little Racers STREET Feb 6, 2014 $5.99N/A (N/A/62%)100,000 .. 200,0000%00:00 (00:00)
53 Shufflepuck Cantina Deluxe Dec 6, 2013 $9.99N/A (N/A)100,000 .. 200,0000%00:00 (00:00)
54 Professional Farmer 2014 Nov 27, 2013 $7.99N/A (N/A)20,000 .. 50,0000%00:00 (00:00)
55 Cities XL Platinum Feb 6, 2013 $1.99N/A (N/A)200,000 .. 500,0000%00:00 (00:00)
56 Lords of Football Apr 5, 2013 $14.99N/A (N/A/52%)50,000 .. 100,0000%00:00 (00:00)
57 Rotastic Oct 11, 2012 $0.74N/A (N/A)0 .. 20,0000%00:00 (00:00)
58 YOU DON’T KNOW JACK Feb 8, 2011 N/AN/A (N/A/71%)0 .. 20,0000%00:00 (00:00)
59 Hacker Evolution: Untold Sep 14, 2010 $0.99N/A (N/A)200,000 .. 500,0000%00:00 (00:00)
60 Silent Hunter 5: Battle of the Atlantic Mar 2010 $9.99N/A (N/A/62%)100,000 .. 200,0000%00:00 (00:00)
61 My Best Friends - Cats & Dogs Mar 27, 2014 $14.99N/A (N/A)0 .. 20,0000%00:00 (00:00)
62 Combat Wings: Battle of Britain Oct 14, 2009 $4.99N/A (N/A)100,000 .. 200,0000%00:00 (00:00)
63 Puzzler World May 28, 2010 $4.99N/A (N/A)50,000 .. 100,0000%00:00 (00:00)
64 LUXOR: Mah Jong Jul 13, 2009 $9.99N/A (N/A)20,000 .. 50,0000%00:00 (00:00)
65 Burnout Paradise: The Ultimate Box Feb 3, 2009 N/AN/A (N/A/87%)1,000,000 .. 2,000,0000.5%57:32 (19:10)
66 Luxor: Quest for the Afterlife Dec 15, 2008 $9.99N/A (N/A)20,000 .. 50,0000%00:00 (00:00)
67 7 Wonders: Treasures of Seven Nov 14, 2008 $9.99N/A (N/A)20,000 .. 50,0000%00:00 (00:00)
68 Discovery! A Seek and Find Adventure Jul 29, 2008 $9.99N/A (N/A)0 .. 20,0000%00:00 (00:00)
69 Little Farm Jun 10, 2008 $9.99N/A (N/A)20,000 .. 50,0000%00:00 (00:00)
70 Luxor 3 Nov 13, 2007 $9.99N/A (N/A)20,000 .. 50,0000%00:00 (00:00)
71 Pacific Storm Allies Aug 18, 2008 $7.99N/A (N/A/60%)20,000 .. 50,0000%00:00 (00:00)
72 Peggle Nights Oct 15, 2008 $4.99N/A (N/A/76%)200,000 .. 500,0000%00:00 (00:00)
73 Pure Pool Jul 31, 2014 $9.99N/A (N/A/68%)50,000 .. 100,0000%00:00 (00:00)
74 Legends of Atlantis: Exodus Sep 3, 2015 $6.99N/A (N/A)20,000 .. 50,0000%00:00 (00:00)
75 SimpleRockets Jun 3, 2015 $7.99N/A (N/A)100,000 .. 200,0000%00:00 (00:00)
76 Adventures of Robinson Crusoe Jan 9, 2015 $9.99N/A (N/A)20,000 .. 50,0000%00:00 (00:00)
77 Brink of Consciousness: The Lonely Hearts Murders Nov 24, 2014 $9.99N/A (N/A)20,000 .. 50,0000%00:00 (00:00)
78 StuntMANIA Reloaded Nov 13, 2014 $4.99N/A (N/A)0 .. 20,0000%00:00 (00:00)
79 Football Club Simulator - FCS #21 Jun 19, 2020 $9.95N/A (N/A)0 .. 20,0000%00:00 (00:00)
80 Sea Legends: Phantasmal Light Collector's Edition Jan 15, 2012 $6.99N/A (N/A)20,000 .. 50,0000%00:00 (00:00)
81 Echelon: Wind Warriors Feb 3, 2004 $3.99N/A (N/A/63%)20,000 .. 50,0000%00:00 (00:00)
82 Echelon Apr 15, 2001 $3.99N/A (N/A/70%)20,000 .. 50,0000%00:00 (00:00)
83 IL-2 Sturmovik: Battle of Stalingrad Oct 22, 2014 $49.99N/A (N/A/74%)1,000,000 .. 2,000,0000%00:00 (00:00)
84 Railroad Pioneer Oct 17, 2003 $4.99N/A (N/A/50%)0 .. 20,0000%00:00 (00:00)
85 Chuzzle Deluxe Aug 30, 2006 $4.99N/A (N/A)100,000 .. 200,0000%00:00 (00:00)
86 Them - The Summoning May 16, 2014 $2.99N/A (N/A)20,000 .. 50,0000%00:00 (00:00)
87 Cosplay Maker Dec 10, 2015 FreeN/A (N/A)0 .. 20,0000%00:00 (00:00)
88 Qvadriga Jun 13, 2014 $19.99N/A (N/A/72%)50,000 .. 100,0000%00:00 (00:00)
89 Rube Works: The Official Rube Goldberg Invention Game Apr 19, 2014 $4.99N/A (N/A)20,000 .. 50,0000%00:00 (00:00)
90 Steel Armor: Blaze of War Mar 5, 2015 $29.99N/A (N/A/70%)20,000 .. 50,0000%00:00 (00:00)
91 Putt-Putt and Pep's Balloon-o-Rama Jan 1, 1996 $4.99N/A (N/A)0 .. 20,0000%00:00 (00:00)
92 My Pet Hotel Mar 27, 2014 $14.99N/A (N/A)0 .. 20,0000%00:00 (00:00)
93 Riding Star - Horse Championship! Mar 27, 2014 $9.99N/A (N/A)0 .. 20,0000%00:00 (00:00)
94 My Riding Stables: Life with Horses Mar 27, 2014 $14.99N/A (N/A)20,000 .. 50,0000%00:00 (00:00)
95 My Riding Stables: Your Horse world Mar 28, 2014 $14.99N/A (N/A)0 .. 20,0000%00:00 (00:00)

Tags over time:

Access restricted.

This feature is only available to users with special access rights. Sorry.

If you want to proceed, you need to register or log in first and then back Steam Spy on Patreon. Look for Indie or Pro pledge.

Don't forget to use the same email as on Steam Spy!

If you've recently backed Steam Spy on Patreon, please note, that it might take around 15 minutes for your access rights to sync. In most cases you'll need to re-login on Steam Spy too.

Owners of this game also own:

Access restricted.

This feature is only available to users with special access rights. Sorry.

If you want to proceed, you need to register or log in first and then back Steam Spy on Patreon. Look for Indie or Pro pledge.

Don't forget to use the same email as on Steam Spy!

If you've recently backed Steam Spy on Patreon, please note, that it might take around 15 minutes for your access rights to sync. In most cases you'll need to re-login on Steam Spy too.

Playtime distribution:

Access restricted.

This feature is only available to users with special access rights. Sorry.

If you want to proceed, you need to register or log in first and then back Steam Spy on Patreon. Look for Indie or Pro pledge.

Don't forget to use the same email as on Steam Spy!

If you've recently backed Steam Spy on Patreon, please note, that it might take around 15 minutes for your access rights to sync. In most cases you'll need to re-login on Steam Spy too.

Playtime (2 weeks):

Access restricted.

This feature is only available to users with special access rights. Sorry.

If you want to proceed, you need to register or log in first and then back Steam Spy on Patreon. Look for Indie or Pro pledge.

Don't forget to use the same email as on Steam Spy!

If you've recently backed Steam Spy on Patreon, please note, that it might take around 15 minutes for your access rights to sync. In most cases you'll need to re-login on Steam Spy too.

User reviews:

Login required.

Please register or log in to see this information.